Time,TemperatureF,DewpointF,PressureIn,WindDirection,WindDirectionDegrees,WindSpeedMPH,WindSpeedGustMPH,Humidity,HourlyPrecipIn,Conditions,Clouds,dailyrainin,SoftwareType,DateUTC
2013-07-03 00:00:00,71.8,70.3,30.16,WSW,257,5.0,5.0,95,0.00,-RA,,0.01,WeatherDisplay:10.37,2013-07-03 04:00:00,
2013-07-03 00:01:00,71.7,70.2,30.16,WSW,254,4.6,4.6,95,0.00,-RA,,0.00,WeatherDisplay:10.37,2013-07-03 04:01:00,
2013-07-03 00:02:00,71.7,70.2,30.16,WSW,254,4.6,4.6,95,0.00,-RA,,0.00,WeatherDisplay:10.37,2013-07-03 04:02:00,
2013-07-03 00:03:00,71.7,70.2,30.16,WSW,253,4.6,4.6,95,0.00,RA,,0.00,WeatherDisplay:10.37,2013-07-03 04:03:00,
2013-07-03 00:04:00,71.7,70.2,30.16,WSW,253,3.5,3.5,95,0.00,RA,,0.00,WeatherDisplay:10.37,2013-07-03 04:04:00,
2013-07-03 00:09:00,71.7,70.2,30.16,SW,231,5.8,5.8,95,0.00,RA,,0.00,WeatherDisplay:10.37,2013-07-03 04:09:00,
2013-07-03 00:14:00,71.6,70.1,30.16,WSW,238,5.8,5.8,95,0.00,FEW,,0.00,WeatherDisplay:10.37,2013-07-03 04:14:00,
2013-07-03 00:19:00,71.5,69.7,30.16,SW,231,4.6,4.6,94,0.00,FEW,,0.00,WeatherDisplay:10.37,2013-07-03 04:19:00,
2013-07-03 00:24:00,71.4,69.6,30.16,WSW,244,4.6,4.6,94,0.00,FEW,,0.00,WeatherDisplay:10.37,2013-07-03 04:24:00,
2013-07-03 00:29:00,71.3,69.5,30.15,WSW,244,3.5,3.5,94,0.00,FEW,,0.00,WeatherDisplay:10.37,2013-07-03 04:29:00,
2013-07-03 00:31:00,71.3,69.5,30.15,WSW,244,3.5,3.5,94,0.00,FEW,,0.00,WeatherDisplay:10.37,2013-07-03 04:31:00,
2013-07-03 00:32:00,71.2,69.4,30.15,WSW,244,3.5,3.5,94,0.00,FEW,,0.00,WeatherDisplay:10.37,2013-07-03 04:32:00,
2013-07-03 00:37:00,71.1,69.6,30.15,WSW,244,3.5,3.5,95,0.00,FEW,,0.00,WeatherDisplay:10.37,2013-07-03 04:37:00,
2013-07-03 00:42:00,71.1,69.6,30.15,WSW,244,3.5,3.5,95,0.00,FEW,,0.00,WeatherDisplay:10.37,2013-07-03 04:42:00,
2013-07-03 00:45:00,71.0,69.5,30.15,WSW,244,3.5,3.5,95,0.00,FEW,,0.00,WeatherDisplay:10.37,2013-07-03 04:45:00,
2013-07-03 00:46:00,71.0,69.5,30.15,WSW,244,3.5,0.0,95,0.00,FEW,,0.00,WeatherDisplay:10.37,2013-07-03 04:46:00,
2013-07-03 00:51:00,70.9,69.4,30.15,WSW,244,3.5,3.5,95,0.00,FEW,,0.00,WeatherDisplay:10.37,2013-07-03 04:51:00,
2013-07-03 00:53:00,70.9,69.4,30.16,WSW,250,3.5,3.5,95,0.00,FEW,,0.00,WeatherDisplay:10.37,2013-07-03 04:53:00,
2013-07-03 00:58:00,71.0,69.5,30.16,WSW,250,4.0,4.0,95,0.00,FEW,,0.00,WeatherDisplay:10.37,2013-07-03 04:58:00,
2013-07-03 01:03:00,70.9,69.4,30.16,SW,227,4.6,4.6,95,0.00,FEW,,0.00,WeatherDisplay:10.37,2013-07-03 05:03:00,
2013-07-03 01:08:00,70.8,69.3,30.16,SW,229,2.3,2.3,95,0.00,FEW,,0.00,WeatherDisplay:10.37,2013-07-03 05:08:00,
2013-07-03 01:13:00,70.8,69.3,30.16,SW,228,4.0,4.0,95,0.00,FEW,,0.00,WeatherDisplay:10.37,2013-07-03 05:13:00,
2013-07-03 01:18:00,70.9,69.4,30.16,WSW,246,3.5,3.5,95,0.00,FEW,,0.00,WeatherDisplay:10.37,2013-07-03 05:18:00,
2013-07-03 01:19:00,70.9,69.4,30.16,WSW,240,4.6,4.6,95,0.00,FEW,,0.00,WeatherDisplay:10.37,2013-07-03 05:19:00,
2013-07-03 01:24:00,70.9,69.4,30.16,SW,233,3.5,3.5,95,0.00,FEW,,0.00,WeatherDisplay:10.37,2013-07-03 05:24:00,
2013-07-03 01:29:00,70.9,69.4,30.16,SW,232,4.6,4.6,95,0.00,FEW,,0.00,WeatherDisplay:10.37,2013-07-03 05:29:00,
2013-07-03 01:35:00,70.9,69.4,30.16,SW,232,4.0,4.0,95,0.00,FEW,,0.00,WeatherDisplay:10.37,2013-07-03 05:35:00,
2013-07-03 01:40:00,70.9,69.4,30.16,SW,231,3.5,3.5,95,0.00,FEW,,0.00,WeatherDisplay:10.37,2013-07-03 05:40:00,
2013-07-03 01:45:00,70.8,69.3,30.16,SW,230,3.5,3.5,95,0.00,FEW,,0.00,WeatherDisplay:10.37,2013-07-03 05:45:00,
2013-07-03 01:50:00,70.8,69.3,30.16,SW,229,3.5,3.5,95,0.00,FEW,,0.00,WeatherDisplay:10.37,2013-07-03 05:50:00,
2013-07-03 01:55:00,70.7,69.2,30.16,SW,229,0.0,0.0,95,0.00,FEW,,0.00,WeatherDisplay:10.37,2013-07-03 05:55:00,
2013-07-03 01:57:00,70.7,69.2,30.16,SW,229,0.0,0.0,95,0.00,FEW,,0.00,WeatherDisplay:10.37,2013-07-03 05:57:00,
2013-07-03 01:58:00,70.7,69.2,30.16,SW,229,0.0,0.0,95,0.00,FEW,,0.00,WeatherDisplay:10.37,2013-07-03 05:58:00,
2013-07-03 02:03:00,70.7,69.2,30.16,North,10,0.0,0.0,95,0.00,CLR,,0.00,WeatherDisplay:10.37,2013-07-03 06:03:00,
2013-07-03 02:04:00,70.7,69.2,30.16,North,10,0.0,0.0,95,0.00,CLR,,0.00,WeatherDisplay:10.37,2013-07-03 06:04:00,
2013-07-03 02:09:00,70.7,69.2,30.16,North,0,0.0,0.0,95,0.00,CLR,,0.00,WeatherDisplay:10.37,2013-07-03 06:09:00,
2013-07-03 02:14:00,70.7,69.2,30.16,North,0,0.0,0.0,95,0.00,CLR,,0.00,WeatherDisplay:10.37,2013-07-03 06:14:00,
2013-07-03 02:17:00,70.7,69.2,30.16,North,0,0.0,0.0,95,0.00,CLR,,0.00,WeatherDisplay:10.37,2013-07-03 06:17:00,
2013-07-03 02:18:00,70.7,69.2,30.16,North,0,0.0,0.0,95,0.00,CLR,,0.00,WeatherDisplay:10.37,2013-07-03 06:18:00,
2013-07-03 02:22:00,70.6,69.4,30.16,SW,229,0.0,0.0,96,0.00,CLR,,0.00,WeatherDisplay:10.37,2013-07-03 06:22:00,
2013-07-03 02:24:00,70.6,69.4,30.16,SW,229,0.0,0.0,96,0.00,CLR,,0.00,WeatherDisplay:10.37,2013-07-03 06:24:00,
2013-07-03 02:26:00,70.6,69.4,30.16,SW,229,0.0,0.0,96,0.00,CLR,,0.00,WeatherDisplay:10.37,2013-07-03 06:26:00,
2013-07-03 02:31:00,70.6,69.4,30.16,SW,228,0.0,0.0,96,0.00,CLR,,0.00,WeatherDisplay:10.37,2013-07-03 06:31:00,
2013-07-03 02:32:00,70.6,69.4,30.16,SW,228,0.0,0.0,96,0.00,CLR,,0.00,WeatherDisplay:10.37,2013-07-03 06:32:00,
2013-07-03 02:37:00,70.6,69.4,30.16,SW,228,0.0,0.0,96,0.00,CLR,,0.00,WeatherDisplay:10.37,2013-07-03 06:37:00,
2013-07-03 02:43:00,70.6,69.4,30.16,SW,229,4.0,4.0,96,0.00,CLR,,0.00,WeatherDisplay:10.37,2013-07-03 06:43:00,
2013-07-03 02:48:00,70.6,69.4,30.16,SW,229,0.0,0.0,96,0.00,CLR,,0.00,WeatherDisplay:10.37,2013-07-03 06:48:00,
2013-07-03 02:53:00,70.6,69.4,30.16,SW,229,0.0,0.0,96,0.00,CLR,,0.00,WeatherDisplay:10.37,2013-07-03 06:53:00,
2013-07-03 02:55:00,70.6,69.4,30.16,SW,229,2.0,2.0,96,0.00,CLR,,0.00,WeatherDisplay:10.37,2013-07-03 06:55:00,
2013-07-03 03:00:00,70.6,69.4,30.16,SW,219,4.6,4.6,96,0.00,CLR,,0.00,WeatherDisplay:10.37,2013-07-03 07:00:00,
2013-07-03 03:06:00,70.6,69.4,30.16,SW,219,3.5,3.5,96,0.00,CLR,,0.00,WeatherDisplay:10.37,2013-07-03 07:06:00,
2013-07-03 03:11:00,70.5,69.3,30.16,SW,219,2.3,2.3,96,0.00,CLR,,0.00,WeatherDisplay:10.37,2013-07-03 07:11:00,
2013-07-03 03:17:00,70.3,69.1,30.16,SW,219,0.0,0.2,96,0.00,CLR,,0.00,WeatherDisplay:10.37,2013-07-03 07:17:00,
2013-07-03 03:23:00,70.2,69.0,30.16,SW,219,0.0,0.0,96,0.00,CLR,,0.00,WeatherDisplay:10.37,2013-07-03 07:23:00,
2013-07-03 03:28:00,70.1,68.9,30.16,SW,219,0.0,0.0,96,0.00,CLR,,0.00,WeatherDisplay:10.37,2013-07-03 07:28:00,
2013-07-03 03:33:00,69.9,68.7,30.16,SW,219,0.0,0.0,96,0.00,CLR,,0.00,WeatherDisplay:10.37,2013-07-03 07:33:00,
2013-07-03 03:38:00,69.9,69.0,30.16,SW,219,0.0,0.0,97,0.00,CLR,,0.00,WeatherDisplay:10.37,2013-07-03 07:38:00,
2013-07-03 03:40:00,69.8,68.6,30.16,SW,219,0.0,0.0,96,0.00,CLR,,0.00,WeatherDisplay:10.37,2013-07-03 07:40:00,
2013-07-03 03:45:00,70.0,69.1,30.16,SW,219,3.0,3.0,97,0.00,CLR,,0.00,WeatherDisplay:10.37,2013-07-03 07:45:00,
2013-07-03 03:51:00,70.1,69.2,30.16,SW,219,3.5,3.5,97,0.00,CLR,,0.00,WeatherDisplay:10.37,2013-07-03 07:51:00,
2013-07-03 03:56:00,70.1,69.2,30.16,SW,219,3.5,3.5,97,0.00,CLR,,0.00,WeatherDisplay:10.37,2013-07-03 07:56:00,
2013-07-03 04:01:00,70.1,69.2,30.16,SW,233,3.5,3.6,97,0.00,CLR,,0.00,WeatherDisplay:10.37,2013-07-03 08:01:00,
2013-07-03 04:06:00,70.1,69.2,30.17,SW,226,6.0,6.0,97,0.00,CLR,,0.00,WeatherDisplay:10.37,2013-07-03 08:06:00,
2013-07-03 04:08:00,70.1,69.2,30.17,SSW,207,9.2,9.2,97,0.00,CLR,,0.00,WeatherDisplay:10.37,2013-07-03 08:08:00,
2013-07-03 04:09:00,70.2,69.3,30.17,SW,235,12.0,12.0,97,0.00,CLR,,0.00,WeatherDisplay:10.37,2013-07-03 08:09:00,
2013-07-03 04:14:00,70.3,69.4,30.16,SW,225,10.4,10.4,97,0.00,CLR,,0.00,WeatherDisplay:10.37,2013-07-03 08:14:00,
2013-07-03 04:18:00,70.4,69.5,30.17,SW,228,6.9,6.9,97,0.00,CLR,,0.00,WeatherDisplay:10.37,2013-07-03 08:18:00,
2013-07-03 04:24:00,70.3,69.4,30.17,SW,235,6.9,6.9,97,0.00,CLR,,0.00,WeatherDisplay:10.37,2013-07-03 08:24:00,
2013-07-03 04:29:00,70.3,69.1,30.17,WSW,254,5.8,5.8,96,0.00,CLR,,0.00,WeatherDisplay:10.37,2013-07-03 08:29:00,
2013-07-03 04:34:00,70.3,69.1,30.17,WSW,249,6.0,6.0,96,0.00,CLR,,0.00,WeatherDisplay:10.37,2013-07-03 08:34:00,
2013-07-03 04:39:00,70.4,69.5,30.17,WSW,241,6.9,6.9,97,0.00,CLR,,0.00,WeatherDisplay:10.37,2013-07-03 08:39:00,
2013-07-03 04:44:00,70.3,69.1,30.17,WSW,244,6.0,6.0,96,0.00,CLR,,0.00,WeatherDisplay:10.37,2013-07-03 08:44:00,
2013-07-03 04:45:00,70.3,69.1,30.17,WSW,244,5.8,5.8,96,0.00,CLR,,0.00,WeatherDisplay:10.37,2013-07-03 08:45:00,
2013-07-03 04:50:00,70.3,69.1,30.17,SW,231,6.0,6.0,96,0.00,CLR,,0.00,WeatherDisplay:10.37,2013-07-03 08:50:00,
2013-07-03 04:55:00,70.2,69.0,30.17,WSW,238,3.5,3.5,96,0.00,CLR,,0.00,WeatherDisplay:10.37,2013-07-03 08:55:00,
2013-07-03 05:00:00,70.1,68.9,30.17,WSW,240,3.5,3.5,96,0.00,CLR,,0.00,WeatherDisplay:10.37,2013-07-03 09:00:00,
2013-07-03 05:06:00,70.1,68.9,30.18,WSW,240,2.3,2.3,96,0.00,CLR,,0.00,WeatherDisplay:10.37,2013-07-03 09:06:00,
2013-07-03 05:11:00,70.8,69.9,30.18,NW,311,2.3,2.3,97,0.00,CLR,,0.00,WeatherDisplay:10.37,2013-07-03 09:11:00,
2013-07-03 05:17:00,70.9,70.0,30.18,West,263,3.5,3.5,97,0.00,CLR,,0.00,WeatherDisplay:10.37,2013-07-03 09:17:00,
2013-07-03 05:22:00,71.0,70.1,30.18,SW,232,1.1,1.1,97,0.00,CLR,,0.00,WeatherDisplay:10.37,2013-07-03 09:22:00,
2013-07-03 05:27:00,71.1,70.2,30.18,SW,229,1.1,1.1,97,0.00,CLR,,0.00,WeatherDisplay:10.37,2013-07-03 09:27:00,
2013-07-03 05:32:00,71.2,70.3,30.18,WSW,246,3.5,3.5,97,0.00,CLR,,0.00,WeatherDisplay:10.37,2013-07-03 09:32:00,
2013-07-03 05:37:00,71.3,70.4,30.18,WSW,248,2.0,2.0,97,0.00,CLR,,0.00,WeatherDisplay:10.37,2013-07-03 09:37:00,
2013-07-03 05:42:00,71.3,70.4,30.18,WSW,238,2.3,2.3,97,0.00,CLR,,0.00,WeatherDisplay:10.37,2013-07-03 09:42:00,
2013-07-03 05:47:00,71.3,70.4,30.19,West,270,2.3,2.3,97,0.00,CLR,,0.00,WeatherDisplay:10.37,2013-07-03 09:47:00,
2013-07-03 05:49:00,71.3,70.4,30.19,West,270,2.3,2.3,97,0.00,CLR,,0.00,WeatherDisplay:10.37,2013-07-03 09:49:00,
2013-07-03 05:52:00,71.3,70.4,30.18,West,270,2.3,2.3,97,0.00,CLR,,0.00,WeatherDisplay:10.37,2013-07-03 09:52:00,
2013-07-03 05:57:00,71.3,70.4,30.19,West,270,2.3,2.3,97,0.00,CLR,,0.00,WeatherDisplay:10.37,2013-07-03 09:57:00,
2013-07-03 06:03:00,71.3,70.4,30.19,North,0,0.0,0.0,97,0.00,CLR,,0.00,WeatherDisplay:10.37,2013-07-03 10:03:00,
2013-07-03 06:05:00,71.3,70.4,30.18,North,0,0.0,0.0,97,0.00,CLR,,0.00,WeatherDisplay:10.37,2013-07-03 10:05:00,
2013-07-03 06:11:00,70.5,69.3,30.19,SW,225,6.9,6.9,96,0.00,CLR,,0.00,WeatherDisplay:10.37,2013-07-03 10:11:00,
2013-07-03 06:16:00,70.4,69.2,30.19,SW,229,10.4,10.4,96,0.00,CLR,,0.00,WeatherDisplay:10.37,2013-07-03 10:16:00,
2013-07-03 06:21:00,70.4,69.2,30.19,WSW,246,5.0,5.0,96,0.00,CLR,,0.00,WeatherDisplay:10.37,2013-07-03 10:21:00,
2013-07-03 06:26:00,70.4,69.2,30.19,WSW,246,5.8,5.8,96,0.00,CLR,,0.00,WeatherDisplay:10.37,2013-07-03 10:26:00,
2013-07-03 06:32:00,70.4,69.2,30.19,West,259,4.6,4.6,96,0.00,CLR,,0.00,WeatherDisplay:10.37,2013-07-03 10:32:00,
2013-07-03 06:33:00,70.4,69.2,30.19,WSW,250,4.6,4.6,96,0.00,CLR,,0.00,WeatherDisplay:10.37,2013-07-03 10:33:00,
2013-07-03 06:38:00,70.4,69.2,30.19,WSW,253,6.9,6.9,96,0.00,CLR,,0.00,WeatherDisplay:10.37,2013-07-03 10:38:00,
2013-07-03 06:43:00,70.6,69.4,30.20,WSW,238,10.4,10.4,96,0.00,CLR,,0.00,WeatherDisplay:10.37,2013-07-03 10:43:00,
2013-07-03 06:48:00,70.8,69.6,30.20,WSW,243,11.5,11.5,96,0.00,CLR,,0.00,WeatherDisplay:10.37,2013-07-03 10:48:00,
2013-07-03 06:51:00,70.8,69.3,30.20,WSW,238,11.0,11.0,95,0.00,CLR,,0.00,WeatherDisplay:10.37,2013-07-03 10:51:00,
2013-07-03 06:55:00,70.8,69.3,30.20,WSW,239,9.2,9.2,95,0.00,CLR,,0.00,WeatherDisplay:10.37,2013-07-03 10:55:00,
2013-07-03 06:59:00,70.8,69.3,30.20,WSW,258,12.0,12.0,95,0.00,CLR,,0.00,WeatherDisplay:10.37,2013-07-03 10:59:00,
2013-07-03 07:04:00,70.7,69.2,30.20,WSW,242,10.4,10.4,95,0.00,BKN,,0.00,WeatherDisplay:10.37,2013-07-03 11:04:00,
2013-07-03 07:10:00,70.6,69.1,30.20,WSW,246,7.0,7.0,95,0.00,BKN,,0.00,WeatherDisplay:10.37,2013-07-03 11:10:00,
2013-07-03 07:16:00,70.6,69.1,30.20,SW,225,11.5,11.5,95,0.00,BKN,,0.00,WeatherDisplay:10.37,2013-07-03 11:16:00,
2013-07-03 07:19:00,70.7,69.2,30.20,WSW,258,11.5,11.5,95,0.00,BKN,,0.00,WeatherDisplay:10.37,2013-07-03 11:19:00,
2013-07-03 07:23:00,70.8,69.3,30.20,WSW,250,6.9,6.9,95,0.00,BKN,,0.00,WeatherDisplay:10.37,2013-07-03 11:23:00,
2013-07-03 07:26:00,70.9,69.4,30.20,WSW,251,6.0,6.0,95,0.00,BKN,,0.00,WeatherDisplay:10.37,2013-07-03 11:26:00,
2013-07-03 07:31:00,71.0,69.5,30.21,WSW,246,9.2,9.2,95,0.00,BKN,,0.00,WeatherDisplay:10.37,2013-07-03 11:31:00,
2013-07-03 07:36:00,71.0,69.5,30.21,WSW,246,6.9,6.9,95,0.00,BKN,,0.00,WeatherDisplay:10.37,2013-07-03 11:36:00,
2013-07-03 07:41:00,71.0,69.5,30.21,WSW,246,5.0,5.0,95,0.00,BKN,,0.00,WeatherDisplay:10.37,2013-07-03 11:41:00,
2013-07-03 07:46:00,71.0,69.2,30.21,WSW,238,6.9,6.9,94,0.00,BKN,,0.00,WeatherDisplay:10.37,2013-07-03 11:46:00,
2013-07-03 07:51:00,71.1,69.3,30.21,WSW,248,9.2,9.2,94,0.00,BKN,,0.00,WeatherDisplay:10.37,2013-07-03 11:51:00,
2013-07-03 07:56:00,71.5,69.7,30.21,WSW,241,7.0,7.0,94,0.00,BKN,,0.00,WeatherDisplay:10.37,2013-07-03 11:56:00,
2013-07-03 08:00:00,71.5,69.7,30.22,WSW,245,9.2,9.2,94,0.00,BKN,,0.00,WeatherDisplay:10.37,2013-07-03 12:00:00,
2013-07-03 08:02:00,71.5,69.7,30.22,WSW,246,9.2,9.2,94,0.00,CLR,,0.00,WeatherDisplay:10.37,2013-07-03 12:02:00,
2013-07-03 08:07:00,71.5,69.7,30.22,WSW,251,10.0,10.0,94,0.00,CLR,,0.00,WeatherDisplay:10.37,2013-07-03 12:07:00,
2013-07-03 08:12:00,71.6,69.8,30.22,SW,236,7.0,7.0,94,0.00,CLR,,0.00,WeatherDisplay:10.37,2013-07-03 12:12:00,
2013-07-03 08:13:00,71.6,69.8,30.22,West,261,7.0,7.0,94,0.00,CLR,,0.00,WeatherDisplay:10.37,2013-07-03 12:13:00,
2013-07-03 08:16:00,71.6,69.8,30.22,WSW,252,5.0,5.0,94,0.00,CLR,,0.00,WeatherDisplay:10.37,2013-07-03 12:16:00,
2013-07-03 08:20:00,71.8,69.7,30.22,West,259,7.0,7.0,93,0.00,CLR,,0.00,WeatherDisplay:10.37,2013-07-03 12:20:00,
2013-07-03 08:25:00,72.1,70.0,30.22,WSW,252,9.2,9.2,93,0.00,CLR,,0.00,WeatherDisplay:10.37,2013-07-03 12:25:00,
2013-07-03 08:30:00,72.1,70.0,30.22,WSW,251,10.4,10.4,93,0.00,CLR,,0.00,WeatherDisplay:10.37,2013-07-03 12:30:00,
2013-07-03 08:35:00,72.1,70.0,30.22,WSW,246,7.0,7.0,93,0.00,CLR,,0.00,WeatherDisplay:10.37,2013-07-03 12:35:00,
2013-07-03 08:40:00,72.3,70.2,30.22,WSW,252,6.9,6.9,93,0.00,CLR,,0.00,WeatherDisplay:10.37,2013-07-03 12:40:00,
2013-07-03 08:46:00,72.2,70.1,30.22,WSW,240,9.2,9.2,93,0.00,CLR,,0.00,WeatherDisplay:10.37,2013-07-03 12:46:00,
2013-07-03 08:53:00,72.2,69.7,30.22,WSW,247,7.0,7.0,92,0.00,CLR,,0.00,WeatherDisplay:10.37,2013-07-03 12:53:00,
2013-07-03 08:58:00,72.4,69.9,30.22,WSW,252,7.0,7.0,92,0.00,CLR,,0.00,WeatherDisplay:10.37,2013-07-03 12:58:00,
2013-07-03 09:03:00,72.5,70.0,30.22,WSW,243,8.0,8.0,92,0.00,BKN,,0.00,WeatherDisplay:10.37,2013-07-03 13:03:00,
2013-07-03 09:08:00,72.8,70.3,30.22,West,260,7.0,7.0,92,0.00,BKN,,0.00,WeatherDisplay:10.37,2013-07-03 13:08:00,
2013-07-03 09:13:00,73.0,70.2,30.22,WSW,250,9.2,9.2,91,0.00,BKN,,0.00,WeatherDisplay:10.37,2013-07-03 13:13:00,
2013-07-03 09:19:00,72.9,70.1,30.22,WSW,240,7.0,7.0,91,0.00,BKN,,0.00,WeatherDisplay:10.37,2013-07-03 13:19:00,
2013-07-03 09:24:00,72.9,70.1,30.22,WSW,248,5.8,5.8,91,0.00,BKN,,0.00,WeatherDisplay:10.37,2013-07-03 13:24:00,
2013-07-03 09:25:00,72.9,70.1,30.22,WSW,248,5.8,5.8,91,0.00,BKN,,0.00,WeatherDisplay:10.37,2013-07-03 13:25:00,
2013-07-03 09:30:00,72.9,70.1,30.22,West,259,5.0,5.0,91,0.00,BKN,,0.00,WeatherDisplay:10.37,2013-07-03 13:30:00,
2013-07-03 09:35:00,73.0,70.2,30.22,WSW,249,6.9,6.9,91,0.00,BKN,,0.00,WeatherDisplay:10.37,2013-07-03 13:35:00,
2013-07-03 09:37:00,73.2,70.4,30.22,WSW,250,5.0,5.0,91,0.00,BKN,,0.00,WeatherDisplay:10.37,2013-07-03 13:37:00,
2013-07-03 09:43:00,73.8,70.7,30.22,WSW,240,9.2,9.2,90,0.00,BKN,,0.00,WeatherDisplay:10.37,2013-07-03 13:43:00,
2013-07-03 09:49:00,74.0,70.9,30.22,WSW,251,6.9,6.9,90,0.00,BKN,,0.00,WeatherDisplay:10.37,2013-07-03 13:49:00,
2013-07-03 09:54:00,73.8,70.7,30.22,WSW,240,5.8,5.8,90,0.00,BKN,,0.00,WeatherDisplay:10.37,2013-07-03 13:54:00,
2013-07-03 09:59:00,73.4,70.3,30.22,SW,233,5.8,5.8,90,0.00,BKN,,0.00,WeatherDisplay:10.37,2013-07-03 13:59:00,
2013-07-03 10:04:00,73.6,70.5,30.22,WSW,257,7.0,7.0,90,0.00,BKN,,0.00,WeatherDisplay:10.37,2013-07-03 14:04:00,
2013-07-03 10:06:00,73.8,70.7,30.21,WSW,254,6.9,6.9,90,0.00,BKN,,0.00,WeatherDisplay:10.37,2013-07-03 14:06:00,
2013-07-03 10:11:00,74.0,70.6,30.22,WSW,245,4.6,4.6,89,0.00,BKN,,0.00,WeatherDisplay:10.37,2013-07-03 14:11:00,
2013-07-03 10:16:00,73.9,70.5,30.22,WSW,250,5.8,5.8,89,0.00,BKN,,0.00,WeatherDisplay:10.37,2013-07-03 14:16:00,
2013-07-03 10:17:00,73.9,70.5,30.22,West,261,5.8,5.8,89,0.00,BKN,,0.00,WeatherDisplay:10.37,2013-07-03 14:17:00,
2013-07-03 10:22:00,73.9,70.5,30.22,WSW,242,7.0,7.0,89,0.00,BKN,,0.00,WeatherDisplay:10.37,2013-07-03 14:22:00,
2013-07-03 10:27:00,73.8,70.4,30.22,SW,236,10.4,10.4,89,0.00,BKN,,0.00,WeatherDisplay:10.37,2013-07-03 14:27:00,
2013-07-03 10:30:00,73.8,70.7,30.22,WSW,247,9.0,9.0,90,0.00,BKN,,0.00,WeatherDisplay:10.37,2013-07-03 14:30:00,
2013-07-03 10:35:00,74.2,71.1,30.22,SW,229,9.0,9.0,90,0.00,BKN,,0.00,WeatherDisplay:10.37,2013-07-03 14:35:00,
2013-07-03 10:40:00,74.8,71.3,30.22,WSW,257,7.0,7.0,89,0.00,BKN,,0.00,WeatherDisplay:10.37,2013-07-03 14:40:00,
2013-07-03 10:41:00,74.8,71.3,30.22,WSW,245,9.2,9.2,89,0.00,BKN,,0.00,WeatherDisplay:10.37,2013-07-03 14:41:00,
2013-07-03 10:47:00,74.4,70.9,30.22,SW,234,10.4,10.4,89,0.00,BKN,,0.00,WeatherDisplay:10.37,2013-07-03 14:47:00,
2013-07-03 10:51:00,74.8,71.3,30.22,WSW,248,6.9,6.9,89,0.00,BKN,,0.00,WeatherDisplay:10.37,2013-07-03 14:51:00,
2013-07-03 10:56:00,75.6,71.8,30.22,WSW,242,11.5,11.5,88,0.00,BKN,,0.00,WeatherDisplay:10.37,2013-07-03 14:56:00,
2013-07-03 10:58:00,75.7,71.6,30.22,WSW,252,10.4,10.4,87,0.00,BKN,,0.00,WeatherDisplay:10.37,2013-07-03 14:58:00,
2013-07-03 11:04:00,75.7,71.6,30.22,WSW,240,11.5,11.5,87,0.00,BKN,,0.00,WeatherDisplay:10.37,2013-07-03 15:04:00,
2013-07-03 11:07:00,75.9,71.4,30.22,WSW,244,10.4,10.4,86,0.00,BKN,,0.00,WeatherDisplay:10.37,2013-07-03 15:07:00,
2013-07-03 11:12:00,75.8,71.7,30.22,WSW,238,9.2,9.2,87,0.00,BKN,,0.00,WeatherDisplay:10.37,2013-07-03 15:12:00,
2013-07-03 11:16:00,75.3,71.2,30.22,WSW,240,10.4,10.4,87,0.00,BKN,,0.00,WeatherDisplay:10.37,2013-07-03 15:16:00,
2013-07-03 11:21:00,75.0,71.5,30.22,WSW,240,9.2,9.2,89,0.00,BKN,,0.00,WeatherDisplay:10.37,2013-07-03 15:21:00,
2013-07-03 11:26:00,75.2,71.1,30.22,SW,221,9.2,9.2,87,0.00,BKN,,0.00,WeatherDisplay:10.37,2013-07-03 15:26:00,
2013-07-03 11:28:00,75.3,71.5,30.22,WSW,254,9.2,9.2,88,0.00,BKN,,0.00,WeatherDisplay:10.37,2013-07-03 15:28:00,
2013-07-03 11:34:00,75.2,71.4,30.22,WSW,237,11.5,11.5,88,0.00,BKN,,0.00,WeatherDisplay:10.37,2013-07-03 15:34:00,
2013-07-03 11:40:00,75.9,72.1,30.22,WSW,256,7.0,7.0,88,0.00,BKN,,0.00,WeatherDisplay:10.37,2013-07-03 15:40:00,
2013-07-03 11:41:00,75.9,72.1,30.22,WSW,256,7.0,7.0,88,0.00,BKN,,0.00,WeatherDisplay:10.37,2013-07-03 15:41:00,
2013-07-03 11:46:00,75.9,71.8,30.22,WSW,251,7.0,7.0,87,0.00,BKN,,0.00,WeatherDisplay:10.37,2013-07-03 15:46:00,
2013-07-03 11:52:00,75.6,71.5,30.22,SW,219,9.2,9.2,87,0.00,BKN,,0.00,WeatherDisplay:10.37,2013-07-03 15:52:00,
2013-07-03 11:53:00,75.4,71.3,30.22,SW,228,9.2,9.2,87,0.00,BKN,,0.00,WeatherDisplay:10.37,2013-07-03 15:53:00,
2013-07-03 11:59:00,75.2,71.4,30.22,WSW,241,9.2,9.2,88,0.00,BKN,,0.00,WeatherDisplay:10.37,2013-07-03 15:59:00,
2013-07-03 12:04:00,75.5,71.7,30.22,SW,231,9.2,9.2,88,0.00,BKN,,0.00,WeatherDisplay:10.37,2013-07-03 16:04:00,
2013-07-03 12:09:00,75.8,71.7,30.21,SW,221,6.9,6.9,87,0.00,BKN,,0.00,WeatherDisplay:10.37,2013-07-03 16:09:00,
2013-07-03 12:14:00,75.9,71.8,30.21,SW,226,5.8,5.8,87,0.00,BKN,,0.00,WeatherDisplay:10.37,2013-07-03 16:14:00,
2013-07-03 12:19:00,75.9,71.8,30.22,SW,228,4.6,4.6,87,0.00,BKN,,0.00,WeatherDisplay:10.37,2013-07-03 16:19:00,
2013-07-03 12:24:00,75.8,71.7,30.22,SW,235,4.6,4.6,87,0.00,BKN,,0.00,WeatherDisplay:10.37,2013-07-03 16:24:00,
2013-07-03 12:29:00,76.6,72.1,30.21,WSW,249,6.0,6.0,86,0.00,BKN,,0.00,WeatherDisplay:10.37,2013-07-03 16:29:00,
2013-07-03 12:35:00,77.2,72.3,30.22,SW,219,4.6,4.6,85,0.00,BKN,,0.00,WeatherDisplay:10.37,2013-07-03 16:35:00,
2013-07-03 12:40:00,78.0,72.4,30.22,WSW,250,6.0,6.0,83,0.00,BKN,,0.00,WeatherDisplay:10.37,2013-07-03 16:40:00,
2013-07-03 12:45:00,78.7,72.7,30.21,WSW,246,6.9,6.9,82,0.00,BKN,,0.00,WeatherDisplay:10.37,2013-07-03 16:45:00,
2013-07-03 12:50:00,79.1,73.1,30.21,WSW,248,6.0,6.0,82,0.00,BKN,,0.00,WeatherDisplay:10.37,2013-07-03 16:50:00,
2013-07-03 12:55:00,79.3,73.0,30.21,WSW,243,5.0,5.0,81,0.00,BKN,,0.00,WeatherDisplay:10.37,2013-07-03 16:55:00,
2013-07-03 13:00:00,79.2,72.9,30.21,SW,228,5.0,5.0,81,0.00,BKN,,0.00,WeatherDisplay:10.37,2013-07-03 17:00:00,
2013-07-03 13:05:00,79.1,72.8,30.21,WSW,248,6.9,6.9,81,0.00,BKN,,0.00,WeatherDisplay:10.37,2013-07-03 17:05:00,
2013-07-03 13:11:00,79.0,72.7,30.21,SW,228,5.8,5.8,81,0.00,BKN,,0.00,WeatherDisplay:10.37,2013-07-03 17:11:00,
2013-07-03 13:15:00,78.5,72.2,30.21,SW,236,6.9,6.9,81,0.00,BKN,,0.00,WeatherDisplay:10.37,2013-07-03 17:15:00,
2013-07-03 13:21:00,78.3,72.3,30.21,SW,236,5.8,5.8,82,0.00,BKN,,0.00,WeatherDisplay:10.37,2013-07-03 17:21:00,
2013-07-03 13:26:00,78.2,72.3,30.20,SW,236,7.0,7.0,82,0.00,BKN,,0.00,WeatherDisplay:10.37,2013-07-03 17:26:00,
2013-07-03 13:32:00,78.2,72.3,30.21,WSW,239,7.0,7.0,82,0.00,BKN,,0.00,WeatherDisplay:10.37,2013-07-03 17:32:00,
2013-07-03 13:37:00,78.2,72.3,30.21,North,11,6.9,6.9,82,0.00,BKN,,0.00,WeatherDisplay:10.37,2013-07-03 17:37:00,
2013-07-03 13:42:00,78.2,72.3,30.21,North,1,0.0,0.0,82,0.00,BKN,,0.00,WeatherDisplay:10.37,2013-07-03 17:42:00,
2013-07-03 13:47:00,78.2,72.3,30.20,North,0,0.0,0.0,82,0.00,BKN,,0.00,WeatherDisplay:10.37,2013-07-03 17:47:00,
2013-07-03 13:52:00,78.2,72.3,30.20,North,0,0.0,0.0,82,0.00,BKN,,0.00,WeatherDisplay:10.37,2013-07-03 17:52:00,
2013-07-03 13:57:00,78.2,72.3,30.20,North,0,0.0,0.0,82,0.00,BKN,,0.00,WeatherDisplay:10.37,2013-07-03 17:57:00,
2013-07-03 14:02:00,78.2,72.3,30.20,North,0,0.0,0.0,82,0.00,BKN,,0.00,WeatherDisplay:10.37,2013-07-03 18:02:00,
2013-07-03 14:07:00,78.2,72.3,30.20,North,0,0.0,0.0,82,0.00,BKN,,0.00,WeatherDisplay:10.37,2013-07-03 18:07:00,
2013-07-03 14:12:00,78.8,73.2,30.20,WSW,244,4.6,4.6,83,0.00,BKN,,0.00,WeatherDisplay:10.37,2013-07-03 18:12:00,
2013-07-03 14:18:00,79.3,73.3,30.20,SW,236,8.1,8.1,82,0.00,BKN,,0.00,WeatherDisplay:10.37,2013-07-03 18:18:00,
2013-07-03 14:23:00,79.4,73.4,30.20,South,180,8.1,8.1,82,0.00,BKN,,0.00,WeatherDisplay:10.37,2013-07-03 18:23:00,
2013-07-03 14:28:00,79.4,73.1,30.20,SW,221,7.0,7.0,81,0.00,BKN,,0.00,WeatherDisplay:10.37,2013-07-03 18:28:00,
2013-07-03 14:33:00,79.4,73.1,30.20,SW,214,7.0,7.0,81,0.00,BKN,,0.00,WeatherDisplay:10.37,2013-07-03 18:33:00,
2013-07-03 14:38:00,79.2,72.9,30.20,SW,232,6.9,6.9,81,0.00,BKN,,0.00,WeatherDisplay:10.37,2013-07-03 18:38:00,
2013-07-03 14:43:00,79.3,73.0,30.19,SSW,212,6.9,6.9,81,0.00,BKN,,0.00,WeatherDisplay:10.37,2013-07-03 18:43:00,
2013-07-03 14:49:00,79.6,73.3,30.19,SW,222,6.0,6.0,81,0.00,BKN,,0.00,WeatherDisplay:10.37,2013-07-03 18:49:00,
2013-07-03 14:54:00,79.5,73.2,30.18,SSW,210,5.8,5.8,81,0.00,BKN,,0.00,WeatherDisplay:10.37,2013-07-03 18:54:00,
2013-07-03 14:59:00,79.2,72.9,30.19,SW,215,6.0,6.0,81,0.00,BKN,,0.00,WeatherDisplay:10.37,2013-07-03 18:59:00,
2013-07-03 15:04:00,79.2,72.9,30.19,SW,217,5.8,5.8,81,0.00,BKN,,0.00,WeatherDisplay:10.37,2013-07-03 19:04:00,
2013-07-03 15:09:00,79.2,73.2,30.19,SW,219,9.2,9.2,82,0.00,BKN,,0.00,WeatherDisplay:10.37,2013-07-03 19:09:00,
2013-07-03 15:14:00,79.8,73.4,30.18,SW,234,6.0,6.0,81,0.00,BKN,,0.00,WeatherDisplay:10.37,2013-07-03 19:14:00,
2013-07-03 15:19:00,79.2,72.9,30.18,SW,217,9.2,9.2,81,0.00,BKN,,0.00,WeatherDisplay:10.37,2013-07-03 19:19:00,
2013-07-03 15:24:00,79.0,73.0,30.18,SW,215,7.0,7.0,82,0.00,BKN,,0.00,WeatherDisplay:10.37,2013-07-03 19:24:00,
2013-07-03 15:29:00,79.2,73.2,30.18,SW,221,9.0,9.0,82,0.00,BKN,,0.00,WeatherDisplay:10.37,2013-07-03 19:29:00,
2013-07-03 15:34:00,79.1,73.1,30.18,SW,218,5.8,5.8,82,0.00,BKN,,0.00,WeatherDisplay:10.37,2013-07-03 19:34:00,
2013-07-03 15:39:00,79.6,73.3,30.18,WSW,237,4.6,4.6,81,0.00,BKN,,0.00,WeatherDisplay:10.37,2013-07-03 19:39:00,
2013-07-03 15:45:00,79.8,73.4,30.17,SW,229,8.1,8.1,81,0.00,BKN,,0.00,WeatherDisplay:10.37,2013-07-03 19:45:00,
2013-07-03 15:50:00,79.2,72.9,30.17,SW,233,9.0,9.0,81,0.00,BKN,,0.00,WeatherDisplay:10.37,2013-07-03 19:50:00,
2013-07-03 15:56:00,78.9,72.6,30.17,SW,228,11.0,11.0,81,0.00,BKN,,0.00,WeatherDisplay:10.37,2013-07-03 19:56:00,
2013-07-03 16:01:00,78.3,72.7,30.17,SSW,205,10.0,10.0,83,0.00,BKN,,0.00,WeatherDisplay:10.37,2013-07-03 20:01:00,
2013-07-03 16:06:00,78.3,73.1,30.17,SW,226,11.5,11.5,84,0.00,BKN,,0.00,WeatherDisplay:10.37,2013-07-03 20:06:00,
2013-07-03 16:11:00,77.8,72.6,30.17,SW,221,12.7,12.7,84,0.00,BKN,,0.00,WeatherDisplay:10.37,2013-07-03 20:11:00,
2013-07-03 16:17:00,76.9,72.4,30.18,SSW,207,12.7,12.7,86,0.00,BKN,,0.00,WeatherDisplay:10.37,2013-07-03 20:17:00,
2013-07-03 16:22:00,76.6,72.4,30.17,WSW,242,11.0,11.0,87,0.00,BKN,,0.00,WeatherDisplay:10.37,2013-07-03 20:22:00,
2013-07-03 16:27:00,76.4,72.2,30.17,WSW,246,10.4,10.4,87,0.00,BKN,,0.00,WeatherDisplay:10.37,2013-07-03 20:27:00,
2013-07-03 16:32:00,76.6,72.4,30.17,SW,222,10.4,10.4,87,0.00,BKN,,0.00,WeatherDisplay:10.37,2013-07-03 20:32:00,
2013-07-03 16:37:00,76.5,72.3,30.17,SSW,204,6.0,6.0,87,0.00,BKN,,0.00,WeatherDisplay:10.37,2013-07-03 20:37:00,
2013-07-03 16:43:00,76.2,72.4,30.17,SW,219,13.0,13.0,88,0.00,BKN,,0.00,WeatherDisplay:10.37,2013-07-03 20:43:00,
2013-07-03 16:48:00,76.3,72.5,30.17,SW,235,9.0,9.0,88,0.00,BKN,,0.00,WeatherDisplay:10.37,2013-07-03 20:48:00,
2013-07-03 16:53:00,76.1,72.3,30.17,SW,227,11.5,11.5,88,0.00,BKN,,0.00,WeatherDisplay:10.37,2013-07-03 20:53:00,
2013-07-03 16:58:00,76.1,72.6,30.17,WSW,239,11.5,11.5,89,0.00,BKN,,0.00,WeatherDisplay:10.37,2013-07-03 20:58:00,
2013-07-03 17:04:00,76.1,72.3,30.16,SW,227,12.7,12.7,88,0.00,SCT,,0.00,WeatherDisplay:10.37,2013-07-03 21:04:00,
2013-07-03 17:09:00,76.3,72.8,30.16,SSW,205,11.5,11.5,89,0.00,SCT,,0.00,WeatherDisplay:10.37,2013-07-03 21:09:00,
2013-07-03 17:15:00,76.7,73.2,30.17,WSW,238,10.0,10.0,89,0.00,SCT,,0.00,WeatherDisplay:10.37,2013-07-03 21:15:00,
2013-07-03 17:20:00,76.4,72.9,30.17,SW,229,8.1,8.1,89,0.00,SCT,,0.00,WeatherDisplay:10.37,2013-07-03 21:20:00,
2013-07-03 17:25:00,76.6,73.1,30.16,SW,226,7.0,7.0,89,0.00,SCT,,0.00,WeatherDisplay:10.37,2013-07-03 21:25:00,
2013-07-03 17:31:00,76.2,72.4,30.16,SW,219,6.9,6.9,88,0.00,SCT,,0.00,WeatherDisplay:10.37,2013-07-03 21:31:00,
2013-07-03 17:36:00,76.1,72.6,30.16,WSW,243,4.6,4.6,89,0.00,SCT,,0.00,WeatherDisplay:10.37,2013-07-03 21:36:00,
2013-07-03 17:41:00,76.1,72.6,30.16,WSW,256,6.9,6.9,89,0.00,SCT,,0.00,WeatherDisplay:10.37,2013-07-03 21:41:00,
2013-07-03 17:47:00,75.9,72.4,30.16,WSW,248,6.0,6.0,89,0.00,SCT,,0.00,WeatherDisplay:10.37,2013-07-03 21:47:00,
2013-07-03 17:52:00,75.9,72.4,30.16,SW,225,6.9,6.9,89,0.00,SCT,,0.00,WeatherDisplay:10.37,2013-07-03 21:52:00,
2013-07-03 17:57:00,75.9,72.4,30.17,SSW,202,11.5,11.5,89,0.00,SCT,,0.00,WeatherDisplay:10.37,2013-07-03 21:57:00,
2013-07-03 18:03:00,75.7,72.2,30.17,SW,227,13.0,13.0,89,0.00,SCT,,0.00,WeatherDisplay:10.37,2013-07-03 22:03:00,
2013-07-03 18:08:00,75.4,71.9,30.17,SW,225,12.0,12.0,89,0.00,SCT,,0.00,WeatherDisplay:10.37,2013-07-03 22:08:00,
2013-07-03 18:13:00,75.3,72.2,30.17,SW,223,12.7,12.7,90,0.00,SCT,,0.00,WeatherDisplay:10.37,2013-07-03 22:13:00,
2013-07-03 18:18:00,74.9,72.1,30.17,SW,236,11.5,11.5,91,0.00,SCT,,0.00,WeatherDisplay:10.37,2013-07-03 22:18:00,
2013-07-03 18:23:00,74.9,72.1,30.17,WSW,256,12.7,12.7,91,0.00,SCT,,0.00,WeatherDisplay:10.37,2013-07-03 22:23:00,
2013-07-03 18:28:00,74.7,71.9,30.17,SW,229,10.4,10.4,91,0.00,SCT,,0.00,WeatherDisplay:10.37,2013-07-03 22:28:00,
2013-07-03 18:34:00,74.8,72.0,30.17,WSW,238,9.2,9.2,91,0.00,SCT,,0.00,WeatherDisplay:10.37,2013-07-03 22:34:00,
2013-07-03 18:39:00,74.7,71.9,30.17,SW,232,4.6,4.6,91,0.00,SCT,,0.00,WeatherDisplay:10.37,2013-07-03 22:39:00,
2013-07-03 18:44:00,74.8,72.0,30.18,WSW,252,8.1,8.1,91,0.00,SCT,,0.00,WeatherDisplay:10.37,2013-07-03 22:44:00,
2013-07-03 18:49:00,74.6,71.8,30.18,WSW,257,5.8,5.8,91,0.00,SCT,,0.00,WeatherDisplay:10.37,2013-07-03 22:49:00,
2013-07-03 18:54:00,74.5,71.7,30.17,WSW,243,6.9,6.9,91,0.00,SCT,,0.00,WeatherDisplay:10.37,2013-07-03 22:54:00,
2013-07-03 19:00:00,74.2,71.7,30.17,SW,226,10.4,10.4,92,0.00,SCT,,0.00,WeatherDisplay:10.37,2013-07-03 23:00:00,
2013-07-03 19:05:00,74.1,71.6,30.17,WSW,257,7.0,7.0,92,0.00,FEW,,0.00,WeatherDisplay:10.37,2013-07-03 23:05:00,
2013-07-03 19:10:00,74.0,71.5,30.17,WSW,248,5.0,5.0,92,0.00,FEW,,0.00,WeatherDisplay:10.37,2013-07-03 23:10:00,
2013-07-03 19:16:00,73.9,71.7,30.17,WSW,254,4.6,4.6,93,0.00,FEW,,0.00,WeatherDisplay:10.37,2013-07-03 23:16:00,
2013-07-03 19:21:00,74.1,71.9,30.17,WSW,258,4.0,4.0,93,0.00,FEW,,0.00,WeatherDisplay:10.37,2013-07-03 23:21:00,
2013-07-03 19:26:00,74.3,72.1,30.17,West,266,6.0,6.0,93,0.00,FEW,,0.00,WeatherDisplay:10.37,2013-07-03 23:26:00,
2013-07-03 19:31:00,74.4,72.2,30.17,SW,225,9.2,9.2,93,0.00,FEW,,0.00,WeatherDisplay:10.37,2013-07-03 23:31:00,
2013-07-03 19:36:00,74.2,71.7,30.18,WSW,248,5.0,5.0,92,0.00,FEW,,0.00,WeatherDisplay:10.37,2013-07-03 23:36:00,
2013-07-03 19:42:00,73.9,71.4,30.17,WSW,248,3.5,3.5,92,0.00,FEW,,0.00,WeatherDisplay:10.37,2013-07-03 23:42:00,
2013-07-03 19:47:00,73.6,71.4,30.17,WSW,247,3.5,3.5,93,0.00,FEW,,0.00,WeatherDisplay:10.37,2013-07-03 23:47:00,
2013-07-03 19:52:00,73.5,71.4,30.17,WSW,246,4.6,4.6,93,0.00,FEW,,0.00,WeatherDisplay:10.37,2013-07-03 23:52:00,
2013-07-03 19:57:00,73.4,71.3,30.18,WSW,244,4.6,4.6,93,0.00,FEW,,0.00,WeatherDisplay:10.37,2013-07-03 23:57:00,
2013-07-03 20:02:00,73.2,71.1,30.18,WSW,245,3.5,3.5,93,0.00,BKN,,0.00,WeatherDisplay:10.37,2013-07-04 00:02:00,
2013-07-03 20:07:00,73.2,71.1,30.18,WSW,243,7.0,7.0,93,0.00,BKN,,0.00,WeatherDisplay:10.37,2013-07-04 00:07:00,
2013-07-03 20:12:00,73.1,71.0,30.19,WSW,243,4.6,4.6,93,0.00,BKN,,0.00,WeatherDisplay:10.37,2013-07-04 00:12:00,
2013-07-03 20:18:00,73.2,71.4,30.19,SW,232,6.0,6.0,94,0.00,BKN,,0.00,WeatherDisplay:10.37,2013-07-04 00:18:00,
2013-07-03 20:23:00,73.1,71.3,30.19,WSW,242,6.0,6.0,94,0.00,BKN,,0.00,WeatherDisplay:10.37,2013-07-04 00:23:00,
2013-07-03 20:28:00,72.9,71.1,30.19,WSW,238,4.6,4.6,94,0.00,BKN,,0.00,WeatherDisplay:10.37,2013-07-04 00:28:00,
2013-07-03 20:34:00,72.8,71.0,30.19,WSW,244,5.8,5.8,94,0.00,BKN,,0.00,WeatherDisplay:10.37,2013-07-04 00:34:00,
2013-07-03 20:39:00,72.9,71.1,30.19,WSW,242,5.0,5.0,94,0.00,BKN,,0.00,WeatherDisplay:10.37,2013-07-04 00:39:00,
2013-07-03 20:44:00,72.9,71.1,30.19,SW,227,6.9,6.9,94,0.00,BKN,,0.00,WeatherDisplay:10.37,2013-07-04 00:44:00,
2013-07-03 20:50:00,72.9,71.1,30.19,WSW,238,5.0,5.0,94,0.00,BKN,,0.00,WeatherDisplay:10.37,2013-07-04 00:50:00,
2013-07-03 21:16:00,72.6,70.8,30.19,SW,229,5.0,5.0,94,0.00,BKN,,0.00,WeatherDisplay:10.37,2013-07-04 01:16:00,
2013-07-03 21:21:00,72.6,70.8,30.19,SW,227,3.5,4.1,94,0.00,BKN,,0.00,WeatherDisplay:10.37,2013-07-04 01:21:00,
2013-07-03 21:26:00,72.6,70.8,30.19,SW,219,5.8,5.8,94,0.00,BKN,,0.00,WeatherDisplay:10.37,2013-07-04 01:26:00,
2013-07-03 21:31:00,72.6,70.8,30.19,SW,227,4.6,4.6,94,0.00,BKN,,0.00,WeatherDisplay:10.37,2013-07-04 01:31:00,
2013-07-03 21:38:00,72.7,70.9,30.20,WSW,238,6.9,6.9,94,0.00,BKN,,0.00,WeatherDisplay:10.37,2013-07-04 01:38:00,
2013-07-03 21:43:00,72.7,70.9,30.20,SW,232,5.0,5.0,94,0.00,BKN,,0.00,WeatherDisplay:10.37,2013-07-04 01:43:00,
2013-07-03 21:49:00,72.7,70.9,30.20,SW,232,6.0,6.0,94,0.00,BKN,,0.00,WeatherDisplay:10.37,2013-07-04 01:49:00,
2013-07-03 21:54:00,72.7,70.9,30.20,SW,231,3.5,3.5,94,0.00,BKN,,0.00,WeatherDisplay:10.37,2013-07-04 01:54:00,
2013-07-03 21:59:00,72.7,70.9,30.20,SW,225,4.0,4.0,94,0.00,BKN,,0.00,WeatherDisplay:10.37,2013-07-04 01:59:00,
2013-07-03 22:05:00,72.7,70.9,30.20,WSW,241,5.0,5.0,94,0.00,OVC,,0.00,WeatherDisplay:10.37,2013-07-04 02:05:00,
2013-07-03 22:10:00,72.5,70.7,30.20,SW,215,5.8,5.8,94,0.00,OVC,,0.00,WeatherDisplay:10.37,2013-07-04 02:10:00,
2013-07-03 22:15:00,72.5,71.0,30.20,SW,223,5.0,5.0,95,0.00,OVC,,0.00,WeatherDisplay:10.37,2013-07-04 02:15:00,
2013-07-03 22:21:00,72.7,71.2,30.20,SW,236,15.0,15.0,95,0.00,OVC,,0.00,WeatherDisplay:10.37,2013-07-04 02:21:00,
2013-07-03 22:26:00,72.8,71.3,30.20,SW,225,6.0,6.0,95,0.00,OVC,,0.00,WeatherDisplay:10.37,2013-07-04 02:26:00,
2013-07-03 22:32:00,72.8,71.3,30.19,SW,231,6.9,6.9,95,0.00,OVC,,0.00,WeatherDisplay:10.37,2013-07-04 02:32:00,
2013-07-03 22:37:00,72.6,71.1,30.19,SW,228,10.0,10.0,95,0.00,OVC,,0.00,WeatherDisplay:10.37,2013-07-04 02:37:00,
2013-07-03 22:42:00,72.7,71.2,30.19,SW,227,12.7,12.7,95,0.00,OVC,,0.00,WeatherDisplay:10.37,2013-07-04 02:42:00,
2013-07-03 22:47:00,72.7,71.2,30.19,SW,229,10.4,10.4,95,0.00,OVC,,0.00,WeatherDisplay:10.37,2013-07-04 02:47:00,
2013-07-03 22:53:00,72.6,71.1,30.19,WSW,253,6.0,6.0,95,0.00,OVC,,0.00,WeatherDisplay:10.37,2013-07-04 02:53:00,
2013-07-03 22:59:00,72.6,71.4,30.19,West,271,4.6,0.0,96,0.00,OVC,,0.00,WeatherDisplay:10.37,2013-07-04 02:59:00,
2013-07-03 23:04:00,72.4,71.2,30.19,West,271,3.5,3.5,96,0.00,FEW,,0.00,WeatherDisplay:10.37,2013-07-04 03:04:00,
2013-07-03 23:09:00,72.3,71.1,30.19,West,271,2.3,2.3,96,0.00,FEW,,0.00,WeatherDisplay:10.37,2013-07-04 03:09:00,
2013-07-03 23:14:00,72.2,71.0,30.19,West,271,2.3,2.3,96,0.00,FEW,,0.00,WeatherDisplay:10.37,2013-07-04 03:14:00,
2013-07-03 23:20:00,72.2,71.0,30.20,West,271,2.3,2.3,96,0.00,FEW,,0.00,WeatherDisplay:10.37,2013-07-04 03:20:00,
2013-07-03 23:25:00,72.1,70.9,30.19,West,271,3.5,3.5,96,0.00,FEW,,0.00,WeatherDisplay:10.37,2013-07-04 03:25:00,
2013-07-03 23:30:00,72.1,70.9,30.19,West,266,4.0,4.0,96,0.00,FEW,,0.00,WeatherDisplay:10.37,2013-07-04 03:30:00,
2013-07-03 23:35:00,72.0,70.8,30.19,WSW,244,9.2,9.2,96,0.00,FEW,,0.00,WeatherDisplay:10.37,2013-07-04 03:35:00,
2013-07-03 23:40:00,72.0,70.8,30.19,WSW,239,4.0,4.0,96,0.00,FEW,,0.00,WeatherDisplay:10.37,2013-07-04 03:40:00,
2013-07-03 23:46:00,72.0,70.8,30.19,WSW,249,4.6,4.6,96,0.00,FEW,,0.00,WeatherDisplay:10.37,2013-07-04 03:46:00,
2013-07-03 23:51:00,72.0,70.8,30.19,WSW,246,3.5,3.5,96,0.00,FEW,,0.00,WeatherDisplay:10.37,2013-07-04 03:51:00,
2013-07-03 23:56:00,72.0,70.8,30.19,WSW,244,4.6,4.6,96,0.00,FEW,,0.00,WeatherDisplay:10.37,2013-07-04 03:56:00,